EHWO/WOE METAR and TAF weather

Enter ICAO airport designator
Station Type Date Time Source
EHWO METAR 2018/01/19 23:14 UTC NOAA

EHWO 192314Z AUTO 23007KT 210V270 9999 SCT023 SCT027 03/01 Q1008 WHT


Station Type Date Time Source
EHWO Decoded METAR 2018/01/19 23:14 UTC NOAA

Woensdrecht, Netherlands (EHWO) 51-27N 004-20E 17M
Jan 19, 2018 - 06:14 PM EST / 2018.01.19 2314 UTC
Wind: from the SW (230 degrees) at 8 MPH (7 KT) (direction variable):0
Visibility: greater than 7 mile(s):0
Sky conditions: partly cloudy
Temperature: 37 F (3 C)
Dew Point: 33 F (1 C)
Relative Humidity: 86%
Pressure (altimeter): 29.77 in. Hg (1008 hPa)
ob: EHWO 192314Z AUTO 23007KT 210V270 9999 SCT023 SCT027 03/01 Q1008 WHT
cycle: 23

Station Type Date Time Source
EHWO TAF 2018/01/19 10:54 UTC NOAA

TAF COR EHWO 190946Z 1910/1922 22008KT 9999 FEW018 SCT040 PROB40
TEMPO 1912/1922 27015G25KT 4500 SHRAGS FEW010 SCT015CB BKN030 PROB30
TEMPO 1912/1922 3000 TSRAGSSN


Example: see airport list